aviador You're here:

KEWN Decoded Metar

NEW BERN in NC, USA
Report Time2017-06-28 11:54:00
UTC Time2017-06-28 12:06:28
Flight Rules vfr VFR
WindCalm
Visibility9999 m
Phenomena:N/A
Clouds:Few 002 Hf
Expected CloudBase > 2,000 ft AGL from Temp-Dew spread
CeilingNone
Temp21°C (ISA +6)
Dew Point16°C (73% RH)
QNH1022 hPa
Density Alt653 ft
Elevation10 ft
Report Wrong Elevation
Raw Report
KEWN 281154Z 00000KT 10SM FEW002 21/16 A3017 RMK AO2 RAB08E16
SLP215 P0000 60000 T02110161 10211 20161 53016=

Extra information for KEWN:More info

Metar Taf Metar & Taf Last 4 Metars F.Rules Stats Wind Profile Meteogram Temp Stats Airport Information Weather charts Add Link Nearby VenuesMetar ALERT Operation Metar Decoded Social comments

AIRNAV info for KEWN